Time;durP1;ratioP1;P1;durP2;ratioP2;P2;SDS_P1;SDS_P2;PMS_P1;PMS_P2;Temp;Humidity;BMP_temperature;BMP_pressure;BME280_temperature;BME280_humidity;BME280_pressure;Samples;Min_cycle;Max_cycle;Signal;HPM_P1;HPM_P2
2021/10/05 05:51:52;;;;;;;4.43;3.15;;;;;;;;;;10602500;27;20958;-87
2021/10/05 05:56:53;;;;;;;4.38;2.67;;;;;;;;;;10591487;28;20032;-87
2021/10/05 06:01:53;;;;;;;3.28;2.22;;;;;;;;;;10620332;28;20012;-86
2021/10/05 06:06:54;;;;;;;3.55;2.40;;;;;;;;;;10613112;28;20036;-87
2021/10/05 06:12:02;;;;;;;;;;;;;;;;;;10604378;28;20119;-87
2021/10/05 06:17:06;;;;;;;2.83;2.10;;;;;;;;;;10591184;28;19904;-87
2021/10/05 06:22:07;;;;;;;2.67;2.08;;;;;;;;;;10603921;28;20028;-86
2021/10/05 06:27:08;;;;;;;4.18;2.10;;;;;;;;;;10591599;28;20111;-87
2021/10/05 06:32:09;;;;;;;2.70;2.00;;;;;;;;;;10589140;28;20042;-85
2021/10/05 06:37:10;;;;;;;3.30;1.65;;;;;;;;;;10591065;28;20036;-86
2021/10/05 06:42:11;;;;;;;2.35;1.67;;;;;;;;;;10594273;28;20191;-85
2021/10/05 06:47:12;;;;;;;3.90;1.95;;;;;;;;;;10597009;28;20108;-85
2021/10/05 06:52:13;;;;;;;2.40;1.75;;;;;;;;;;10593643;28;20111;-88
2021/10/05 06:57:14;;;;;;;1.35;1.25;;;;;;;;;;10595005;28;20489;-85
2021/10/05 07:02:15;;;;;;;2.78;1.48;;;;;;;;;;10571884;28;20238;-84
2021/10/05 07:07:16;;;;;;;2.65;1.50;;;;;;;;;;10563651;28;20077;-84
2021/10/05 07:12:16;;;;;;;3.65;1.65;;;;;;;;;;10563509;28;20012;-86
2021/10/05 07:17:17;;;;;;;3.00;1.80;;;;;;;;;;10559228;28;20450;-87
2021/10/05 07:22:19;;;;;;;3.08;1.90;;;;;;;;;;10558982;28;20032;-88
2021/10/05 07:27:20;;;;;;;3.00;1.75;;;;;;;;;;10551115;28;20354;-88
2021/10/05 07:32:24;;;;;;;4.03;2.13;;;;;;;;;;10554358;28;20024;-87
2021/10/05 07:37:25;;;;;;;2.40;1.85;;;;;;;;;;10559885;28;20024;-88
2021/10/05 07:42:32;;;;;;;5.45;3.85;;;;;;;;;;10557418;28;20510;-87
2021/10/05 07:47:33;;;;;;;3.33;2.20;;;;;;;;;;10562651;28;20107;-89
2021/10/05 07:52:34;;;;;;;4.40;1.85;;;;;;;;;;10577223;28;20039;-90
2021/10/05 07:57:45;;;;;;;4.70;2.30;;;;;;;;;;10569526;28;20094;-91
2021/10/05 08:02:46;;;;;;;4.95;2.50;;;;;;;;;;10579641;28;20035;-89
2021/10/05 08:08:10;;;;;;;4.72;2.17;;;;;;;;;;10581343;28;20020;-88
2021/10/05 08:13:11;;;;;;;3.58;1.77;;;;;;;;;;10561410;28;20024;-85
2021/10/05 08:18:15;;;;;;;3.78;1.80;;;;;;;;;;10553049;28;20135;-88
2021/10/05 08:23:16;;;;;;;2.95;1.67;;;;;;;;;;10564586;28;20036;-86
2021/10/05 08:28:17;;;;;;;3.33;2.00;;;;;;;;;;10546859;28;20040;-86
2021/10/05 08:33:18;;;;;;;3.95;1.80;;;;;;;;;;10549976;28;20016;-85
2021/10/05 08:38:19;;;;;;;2.33;1.25;;;;;;;;;;10567461;28;20035;-84
2021/10/05 08:43:21;;;;;;;2.03;1.38;;;;;;;;;;10565677;28;20039;-85
2021/10/05 08:48:35;;;;;;;2.63;1.20;;;;;;;;;;10548247;28;20020;-86
2021/10/05 08:53:37;;;;;;;1.23;1.13;;;;;;;;;;10562423;28;20016;-87
2021/10/05 08:58:55;;;;;;;;;;;;;;;;;;;;;
2021/10/05 09:03:57;;;;;;;1.63;1.00;;;;;;;;;;10575603;28;20032;-87
2021/10/05 09:09:01;;;;;;;2.65;1.10;;;;;;;;;;10553389;28;20032;-86
2021/10/05 09:14:03;;;;;;;2.88;1.20;;;;;;;;;;10554167;28;20024;-87
2021/10/05 09:19:06;;;;;;;2.13;1.13;;;;;;;;;;10547406;28;20077;-86
2021/10/05 09:24:11;;;;;;;1.83;1.10;;;;;;;;;;10545128;28;20027;-86
2021/10/05 09:29:14;;;;;;;1.98;1.30;;;;;;;;;;10543627;28;20401;-86
2021/10/05 09:34:16;;;;;;;3.00;1.27;;;;;;;;;;10549859;28;20016;-85
2021/10/05 09:39:17;;;;;;;1.30;0.90;;;;;;;;;;10561045;28;20078;-85
2021/10/05 09:44:24;;;;;;;2.13;1.00;;;;;;;;;;10572716;28;20024;-85
2021/10/05 09:49:25;;;;;;;1.13;0.93;;;;;;;;;;10572571;28;20035;-85
2021/10/05 09:54:27;;;;;;;1.67;0.90;;;;;;;;;;10551036;28;20127;-87
2021/10/05 09:59:29;;;;;;;2.15;1.00;;;;;;;;;;10555403;28;20101;-87
2021/10/05 10:04:30;;;;;;;3.00;1.63;;;;;;;;;;10552011;28;20032;-87
2021/10/05 10:09:31;;;;;;;1.33;0.85;;;;;;;;;;10554170;28;20032;-87
2021/10/05 10:14:33;;;;;;;2.40;1.20;;;;;;;;;;10551934;28;20119;-86
2021/10/05 10:19:36;;;;;;;2.60;1.20;;;;;;;;;;10570121;28;20039;-86
2021/10/05 10:25:06;;;;;;;2.85;1.13;;;;;;;;;;10545826;28;20024;-86
2021/10/05 10:30:10;;;;;;;2.40;1.10;;;;;;;;;;10521779;28;20104;-86
2021/10/05 10:35:11;;;;;;;2.72;1.10;;;;;;;;;;10542853;28;20058;-86
2021/10/05 10:40:13;;;;;;;3.33;1.17;;;;;;;;;;10553018;28;20365;-86
2021/10/05 10:45:15;;;;;;;1.30;0.90;;;;;;;;;;10551405;28;20032;-87
2021/10/05 10:50:16;;;;;;;2.80;1.10;;;;;;;;;;10554790;28;20529;-87
2021/10/05 10:55:22;;;;;;;3.33;1.08;;;;;;;;;;10553253;28;20101;-87
2021/10/05 11:00:25;;;;;;;2.42;1.02;;;;;;;;;;10551924;28;20024;-87
2021/10/05 11:05:27;;;;;;;1.40;0.88;;;;;;;;;;10554560;28;20511;-87
2021/10/05 11:10:29;;;;;;;4.13;1.10;;;;;;;;;;10557459;28;20024;-86
2021/10/05 11:15:33;;;;;;;2.78;0.88;;;;;;;;;;10556706;28;20023;-86
2021/10/05 11:20:36;;;;;;;2.45;0.98;;;;;;;;;;10559142;28;20031;-86
2021/10/05 11:25:37;;;;;;;2.30;1.00;;;;;;;;;;10563668;28;20030;-84
2021/10/05 11:30:46;;;;;;;2.45;1.15;;;;;;;;;;10555906;28;20070;-86
2021/10/05 11:35:49;;;;;;;1.80;1.10;;;;;;;;;;10556692;28;20586;-86
2021/10/05 11:40:55;;;;;;;3.05;0.98;;;;;;;;;;10550306;28;20028;-86
2021/10/05 11:45:56;;;;;;;1.63;0.90;;;;;;;;;;10559906;28;20437;-87
2021/10/05 11:51:03;;;;;;;1.85;0.73;;;;;;;;;;10582092;28;20024;-85
2021/10/05 11:56:24;;;;;;;3.00;0.95;;;;;;;;;;10575316;28;20023;-86
2021/10/05 12:01:30;;;;;;;2.15;1.15;;;;;;;;;;10565840;28;20100;-86
2021/10/05 12:06:32;;;;;;;2.10;1.10;;;;;;;;;;10557217;28;20024;-87
2021/10/05 12:11:41;;;;;;;3.35;1.00;;;;;;;;;;10557352;28;20028;-87
2021/10/05 12:17:00;;;;;;;3.70;1.08;;;;;;;;;;10573898;28;20095;-87
2021/10/05 12:22:06;;;;;;;2.35;0.80;;;;;;;;;;10551865;28;20066;-87
2021/10/05 12:27:07;;;;;;;3.70;1.25;;;;;;;;;;10553961;28;20024;-85
2021/10/05 12:32:08;;;;;;;2.50;0.90;;;;;;;;;;10560263;28;20032;-86
2021/10/05 12:37:09;;;;;;;3.90;0.88;;;;;;;;;;10561908;28;20039;-86
2021/10/05 12:42:11;;;;;;;2.42;0.90;;;;;;;;;;10558033;28;20024;-85
2021/10/05 12:47:12;;;;;;;2.60;0.80;;;;;;;;;;10561244;28;20047;-85
2021/10/05 12:52:13;;;;;;;1.52;0.73;;;;;;;;;;10561368;28;20028;-85
2021/10/05 12:57:14;;;;;;;3.13;1.27;;;;;;;;;;10557359;28;20032;-85
2021/10/05 13:02:15;;;;;;;1.85;0.98;;;;;;;;;;10555872;28;20493;-86
2021/10/05 13:07:16;;;;;;;2.53;1.17;;;;;;;;;;10554042;28;20106;-85
2021/10/05 13:12:17;;;;;;;4.68;1.30;;;;;;;;;;10551932;28;20047;-87
2021/10/05 13:17:18;;;;;;;2.65;1.40;;;;;;;;;;10552861;28;20020;-86
2021/10/05 13:22:19;;;;;;;3.33;1.15;;;;;;;;;;10452103;22;20081;-85
2021/10/05 13:27:20;;;;;;;2.60;1.00;;;;;;;;;;10387273;28;20080;-87
2021/10/05 13:32:21;;;;;;;2.22;0.90;;;;;;;;;;10416091;28;20030;-85
2021/10/05 13:37:22;;;;;;;3.92;1.15;;;;;;;;;;10425398;28;20030;-85
2021/10/05 13:42:24;;;;;;;3.47;1.10;;;;;;;;;;10424724;28;20030;-87
2021/10/05 13:53:11;;;;;;;2.95;1.25;;;;;;;;;;10434327;28;20025;-87
2021/10/05 13:58:13;;;;;;;2.45;1.10;;;;;;;;;;10432224;28;20025;-88
2021/10/05 14:03:17;;;;;;;2.92;1.35;;;;;;;;;;10426222;28;20208;-88
2021/10/05 14:08:18;;;;;;;2.50;1.20;;;;;;;;;;10426966;28;20041;-87
2021/10/05 14:13:19;;;;;;;2.25;1.10;;;;;;;;;;10435855;28;20140;-88
2021/10/05 14:18:20;;;;;;;2.10;1.20;;;;;;;;;;10438731;28;20132;-87
2021/10/05 14:23:22;;;;;;;1.92;1.10;;;;;;;;;;10439529;28;20033;-87
2021/10/05 14:28:23;;;;;;;3.97;1.40;;;;;;;;;;10417260;28;20097;-85
2021/10/05 14:33:24;;;;;;;2.30;1.67;;;;;;;;;;10430473;28;20089;-86
2021/10/05 14:38:37;;;;;;;2.92;1.38;;;;;;;;;;10432577;28;20071;-87
2021/10/05 14:43:39;;;;;;;2.63;1.63;;;;;;;;;;10437647;28;20143;-85
2021/10/05 14:48:42;;;;;;;4.43;1.80;;;;;;;;;;10442990;28;20021;-86
2021/10/05 14:53:43;;;;;;;5.07;1.40;;;;;;;;;;10440155;28;20017;-87
2021/10/05 14:58:49;;;;;;;4.90;1.65;;;;;;;;;;10434896;28;20451;-87
2021/10/05 15:03:54;;;;;;;4.75;1.77;;;;;;;;;;10436526;28;20037;-86
2021/10/05 15:08:55;;;;;;;4.47;1.70;;;;;;;;;;10412752;28;20105;-85
2021/10/05 15:13:57;;;;;;;3.72;1.77;;;;;;;;;;10459405;28;20044;-86
2021/10/05 15:19:10;;;;;;;3.20;1.60;;;;;;;;;;10443532;28;20049;-86
2021/10/05 15:24:28;;;;;;;3.72;1.70;;;;;;;;;;10445494;28;20049;-86
2021/10/05 15:29:32;;;;;;;3.92;1.88;;;;;;;;;;10443340;28;20172;-88
2021/10/05 15:34:33;;;;;;;4.13;1.58;;;;;;;;;;10439629;28;20026;-88
2021/10/05 15:39:34;;;;;;;5.53;1.90;;;;;;;;;;10428393;28;20434;-89
2021/10/05 15:44:36;;;;;;;3.97;1.80;;;;;;;;;;10421281;28;20055;-88
2021/10/05 15:49:37;;;;;;;4.95;1.90;;;;;;;;;;10422950;28;20036;-87
2021/10/05 15:54:38;;;;;;;3.50;1.85;;;;;;;;;;10433112;28;20028;-87
2021/10/05 15:59:39;;;;;;;3.67;1.90;;;;;;;;;;10436165;28;20025;-86
2021/10/05 16:04:40;;;;;;;3.97;1.55;;;;;;;;;;10457829;28;20036;-86
2021/10/05 16:09:41;;;;;;;6.15;2.40;;;;;;;;;;10454757;28;20039;-87
2021/10/05 16:14:42;;;;;;;3.75;1.75;;;;;;;;;;10432677;28;20021;-86
2021/10/05 16:19:42;;;;;;;4.45;1.90;;;;;;;;;;10435207;28;20089;-86
2021/10/05 16:24:45;;;;;;;3.22;1.60;;;;;;;;;;10432247;28;20029;-87
2021/10/05 16:29:46;;;;;;;2.90;1.42;;;;;;;;;;10433290;28;20056;-87
2021/10/05 16:34:48;;;;;;;3.53;2.10;;;;;;;;;;10431576;28;20025;-86
2021/10/05 16:39:49;;;;;;;5.15;2.58;;;;;;;;;;10440289;28;20070;-85
2021/10/05 16:44:50;;;;;;;11.00;8.80;;;;;;;;;;10446175;28;20479;-84
2021/10/05 16:49:51;;;;;;;4.20;2.40;;;;;;;;;;10448232;28;20117;-85
2021/10/05 16:54:51;;;;;;;4.25;2.10;;;;;;;;;;10441416;28;20040;-84
2021/10/05 16:59:52;;;;;;;4.15;1.90;;;;;;;;;;10434323;28;20025;-84
2021/10/05 17:04:53;;;;;;;3.85;1.95;;;;;;;;;;10433536;28;20111;-85
2021/10/05 17:09:54;;;;;;;2.75;1.70;;;;;;;;;;10453713;28;20032;-84
2021/10/05 17:14:55;;;;;;;3.70;1.88;;;;;;;;;;10447725;28;20089;-84
2021/10/05 17:19:56;;;;;;;3.45;1.65;;;;;;;;;;10437081;28;20037;-83
2021/10/05 17:24:57;;;;;;;3.25;2.20;;;;;;;;;;10436150;28;20030;-83
2021/10/05 17:29:58;;;;;;;3.95;1.73;;;;;;;;;;10439079;28;20029;-84
2021/10/05 17:34:59;;;;;;;3.85;1.70;;;;;;;;;;10436213;28;20048;-84
2021/10/05 17:40:00;;;;;;;3.88;1.90;;;;;;;;;;10431795;28;20026;-84
2021/10/05 17:45:07;;;;;;;3.25;1.63;;;;;;;;;;10438387;28;20036;-86
2021/10/05 17:50:09;;;;;;;2.35;1.50;;;;;;;;;;10441871;28;20116;-85
2021/10/05 17:55:11;;;;;;;3.00;1.70;;;;;;;;;;10438444;28;20033;-84
2021/10/05 18:00:13;;;;;;;3.35;1.90;;;;;;;;;;10444963;28;20129;-85
2021/10/05 18:05:14;;;;;;;5.25;2.22;;;;;;;;;;10441302;28;20125;-85
2021/10/05 18:10:15;;;;;;;3.28;1.75;;;;;;;;;;10439230;28;20040;-84
2021/10/05 18:15:16;;;;;;;2.55;1.50;;;;;;;;;;10435584;28;20022;-84
2021/10/05 18:20:17;;;;;;;5.10;2.35;;;;;;;;;;10433185;28;20034;-84
2021/10/05 18:25:18;;;;;;;5.63;3.00;;;;;;;;;;10432575;28;20026;-83
2021/10/05 18:30:19;;;;;;;11.60;7.20;;;;;;;;;;10432844;28;20476;-83
2021/10/05 18:35:20;;;;;;;6.60;3.50;;;;;;;;;;10431738;28;20083;-84
2021/10/05 18:40:22;;;;;;;4.35;2.28;;;;;;;;;;10433598;28;20056;-84
2021/10/05 18:45:24;;;;;;;4.82;2.83;;;;;;;;;;10440488;28;20112;-84
2021/10/05 18:50:25;;;;;;;4.90;2.10;;;;;;;;;;10441964;28;20040;-83
2021/10/05 18:55:27;;;;;;;6.03;2.60;;;;;;;;;;10442218;28;20033;-83
2021/10/05 19:00:28;;;;;;;3.25;2.10;;;;;;;;;;10458584;28;20021;-83
2021/10/05 19:05:29;;;;;;;4.75;2.35;;;;;;;;;;10466532;28;20033;-83
2021/10/05 19:10:30;;;;;;;4.03;2.03;;;;;;;;;;10455595;28;20040;-84
2021/10/05 19:15:31;;;;;;;5.65;3.80;;;;;;;;;;10449728;28;20372;-84
2021/10/05 19:20:34;;;;;;;10.35;7.20;;;;;;;;;;10438769;28;20116;-86
2021/10/05 19:25:35;;;;;;;11.02;7.28;;;;;;;;;;10427605;28;20025;-86
2021/10/05 19:30:36;;;;;;;17.83;12.90;;;;;;;;;;10428727;28;20060;-87
2021/10/05 19:35:37;;;;;;;15.82;12.50;;;;;;;;;;10423425;28;20021;-86
2021/10/05 19:40:38;;;;;;;19.40;15.02;;;;;;;;;;10428757;28;20116;-85
2021/10/05 19:45:39;;;;;;;16.83;13.65;;;;;;;;;;10433691;28;20144;-86
2021/10/05 19:50:40;;;;;;;16.70;13.52;;;;;;;;;;10435369;28;20516;-86
2021/10/05 19:55:41;;;;;;;15.35;12.75;;;;;;;;;;10436024;28;20022;-86
2021/10/05 20:00:53;;;;;;;18.25;14.88;;;;;;;;;;10421260;28;20057;-86
2021/10/05 20:05:55;;;;;;;15.57;12.60;;;;;;;;;;10422146;28;20033;-85
2021/10/05 20:10:57;;;;;;;12.07;8.13;;;;;;;;;;10423019;28;20029;-85
2021/10/05 20:15:58;;;;;;;6.65;4.53;;;;;;;;;;10422839;28;20030;-85
